Amunt
Inicio > meteoXarxa
Fes-te'n soci

METEOXARXA

la Pobla Tornesa
Ubicació Desert
Comarca la Plana Alta
Altitud (msnm) 729
Posició geogràfica 40° 5' 16.33" N, 00° 2' 19.58" E
Model Davis Vantage Pro
Presa de dades
Font de les dades Universitat Jaume I de Castelló
Estadístiques. Resum
Data Temperatura (ºC) Humitat (%) Pressió (hPa) Vent (km/h) Precipit. (mm)
Mínima Mitjana Màxima Mínima Mitjana Màxima Mínima Mitjana Màxima Predom. Mitjana Ràfega màxima Total Dies de pluja
Mínima Mitjana Màxima Mínima Mitjana Màxima
Últimes dades diàries
24-02-2017 6,4     8,8     11,6 N 22,7 64,4 4,8  
23-02-2017 9,5     12,6     16,7 S 9,3 33,8 0,0  
22-02-2017 11,7     12,5     13,9 S 11,6 25,7 0,0  
21-02-2017 8,1     10,8     13,0 S 8,9 22,5 0,0  
20-02-2017 7,3     8,9     11,3 SSE 11,9 30,6 0,0  
19-02-2017 6,3     7,6     10,4 NE 15,3 33,8 0,3  
18-02-2017 6,3     8,8     11,7 SSE 6,3 24,1 0,0  
17-02-2017 6,8     8,7     10,6 S 8,5 32,2 0,0  
16-02-2017 8,1     8,8     10,2 N 10,3 29,0 0,3  
15-02-2017 6,4     8,8     11,3 NNE 17,2 41,8 0,3  
14-02-2017 7,9     9,8     12,8 N 12,7 37,0 0,0  
13-02-2017 8,2     9,6     11,6 NNE 19,8 66,0 7,9  
12-02-2017 8,2     8,8     9,7 NE 16,7 46,7 0,3  
11-02-2017 3,9     5,6     8,1 NNE 23,0 56,3 0,0  
10-02-2017 4,9     5,7     7,3 SE 13,2 33,8 0,0  
09-02-2017 3,7     5,5     9,6 NNW 27,2 88,5 0,0  
08-02-2017 4,1     5,6     7,8 NNW 135,2 0,0  
07-02-2017 6,1     12,7     15,8 NW 24,0 77,2 0,0  
06-02-2017 6,1     10,1     13,7 NW 30,3 103,0 0,0  
05-02-2017 4,9     9,3     13,0 NW 48,3 122,3 1,8  
04-02-2017 9,7     12,4     14,7 SSW 30,3 80,5 0,0  
03-02-2017 7,3     10,8     14,4 SSW 26,2 74,0 0,0  
02-02-2017 7,3     9,5     11,7 W 22,7 57,9 1,8  
01-02-2017 10,1     12,4     16,1 SW 17,1 53,1 0,0  
31-01-2017 9,4     11,2     13,4 S 11,7 24,1 0,0  
30-01-2017 10,1     11,7     13,8 SSW 9,2 25,7 0,0  
29-01-2017 5,8     7,6     11,6 NW 15,8 49,9 0,0  
28-01-2017 4,1     7,1     9,7 NNW 35,2 74,0 1,5  
27-01-2017 4,4     6,6     8,6 SSE 19,2 69,2 7,1  
26-01-2017 2,7     4,1     5,7 SSE 8,5 24,1 0,0  
25-01-2017 3,6     6,8     9,8 SE 11,3 40,2 0,0  
24-01-2017 5,3     7,3     9,5 NW 24,0 49,9 0,0  
Dades del mes en curs (actualitzades fins l'últim dia disponible)
02/2017 3,7 7,1 11,7 9,3 7,3 12,0 16,7   18,8 135,2 17,5  
Últimes dades mensuals
01/2017 -3,2 4,9 10,9 7,1 3,1 9,6 16,4 22,9 104,6 191,7 10
12/2016 3,5 7,7 11,1 9,5 6,2 11,8 18,1 15,8 86,9 113,3 12
11/2016 4,0 8,8 14,3 11,2 8,3 14,0 19,9 19,1 90,1 89,4 13
10/2016 11,6 14,5 17,2 16,1 13,3 18,4 22,0 10,3 57,9 24,8 17
09/2016 12,8 17,4 27,3 19,8 18,4 22,6 33,2 14,0 90,1 56,5 9
08/2016 14,9 18,7 21,4 21,4 20,7 24,0 27,6 12,0 66,0 9,3 14
07/2016 13,6 19,0 27,4 21,6 19,3 24,3 29,9 13,7 56,3 1,2 4
06/2016 11,9 15,9 20,6 18,2 18,4 21,2 26,2 15,4 88,5 1,3 1
05/2016 5,1 11,2 15,8 13,8 12,2 16,7 22,5 17,0 91,7 27,0 11
04/2016 5,1 9,0 13,9 11,3 9,7 14,3 21,6 19,7 99,8 39,9 9
03/2016 3,1 6,6 13,2 9,1 7,1 12,1 18,2 20,5 91,7 24,7 8
02/2016 0,5 6,7 14,2 9,2 5,5 12,0 16,4 21,1 103,0 1,4 4
01/2016 2,2 7,3 12,4 9,6 6,4 12,1 17,3 18,5 93,3 2,8 6
Dades de l'any en curs (actualitzades fins l'últim dia disponible)
2017 -3,2 5,8 11,7 8,1 3,1 10,6 16,7   21,0 135,2 209,2  
Últimes dades anuals
2015 -2,7 12,3 15,3 14,7 17,3 17,4 33,0 16,4 132,0 459,1 76
2016 0,5 11,9 27,4 14,2 5,5 17,0 33,2 16,4 103,0 391,6 108